createdAt,value
2017-02-04T00:00:46.837Z,3.6
2017-02-04T00:01:46.874Z,3.65
2017-02-04T00:02:46.874Z,3.65
2017-02-04T00:03:46.904Z,3.62
2017-02-04T00:04:46.904Z,3.6
2017-02-04T00:05:46.938Z,3.66
2017-02-04T00:07:01.461Z,3.58
2017-02-04T00:07:46.975Z,3.61
2017-02-04T00:08:46.968Z,3.55
2017-02-04T00:09:46.983Z,3.58
2017-02-04T00:10:47.001Z,3.61
2017-02-04T00:11:47.039Z,3.57
2017-02-04T00:12:47.027Z,3.57
2017-02-04T00:13:47.064Z,3.57
2017-02-04T00:14:47.059Z,3.55
2017-02-04T00:15:47.086Z,3.55
2017-02-04T00:16:47.096Z,3.57
2017-02-04T00:17:47.113Z,3.54
2017-02-04T00:18:47.129Z,3.55
2017-02-04T00:19:47.156Z,3.6
2017-02-04T00:20:46.775Z,3.62
2017-02-04T00:22:47.194Z,3.66
2017-02-04T00:23:46.818Z,3.62
2017-02-04T00:24:47.220Z,3.65
2017-02-04T00:25:47.238Z,3.55
2017-02-04T00:26:47.259Z,3.58
2017-02-04T00:27:47.322Z,3.66
2017-02-04T00:28:46.897Z,3.62
2017-02-04T00:29:47.305Z,3.51
2017-02-04T00:30:47.319Z,3.66
2017-02-04T00:31:47.339Z,3.58
2017-02-04T00:32:47.351Z,3.6
2017-02-04T00:33:47.367Z,3.54
2017-02-04T00:34:47.386Z,3.58
2017-02-04T00:35:47.403Z,3.57
2017-02-04T00:36:47.414Z,3.5
2017-02-04T00:37:47.435Z,3.52
2017-02-04T00:39:47.460Z,3.55
2017-02-04T00:40:47.485Z,3.57
2017-02-04T00:41:47.493Z,3.58
2017-02-04T00:42:47.512Z,3.55
2017-02-04T00:44:02.056Z,3.6
2017-02-04T00:44:47.546Z,3.58
2017-02-04T00:46:02.089Z,3.5
2017-02-04T00:46:47.577Z,3.52
2017-02-04T00:47:47.587Z,3.62
2017-02-04T00:48:47.608Z,3.55
2017-02-04T00:49:47.622Z,3.58
2017-02-04T00:52:48.022Z,3.58
2017-02-04T00:54:02.262Z,3.54
2017-02-04T00:54:47.699Z,3.52
2017-02-04T00:55:47.724Z,3.52
2017-02-04T00:56:47.734Z,3.58
2017-02-04T00:57:47.753Z,3.54
2017-02-04T00:58:47.769Z,3.4
2017-02-04T00:59:47.786Z,3.55
2017-02-04T01:00:47.800Z,3.54
2017-02-04T01:01:47.816Z,3.62
2017-02-04T01:02:47.834Z,3.6
2017-02-04T01:03:47.845Z,3.57
2017-02-04T01:04:47.477Z,3.62
2017-02-04T01:06:47.897Z,3.61
2017-02-04T01:08:47.929Z,3.57
2017-02-04T01:10:47.964Z,3.6
2017-02-04T01:11:47.978Z,3.54
2017-02-04T01:13:02.527Z,3.55
2017-02-04T01:13:48.013Z,3.54
2017-02-04T01:14:47.638Z,3.48
2017-02-04T01:15:48.042Z,3.48
2017-02-04T01:16:48.060Z,3.55
2017-02-04T01:17:48.074Z,3.51
2017-02-04T01:18:48.093Z,3.5
2017-02-04T01:19:48.106Z,3.52
2017-02-04T01:20:48.121Z,3.51
2017-02-04T01:21:48.138Z,3.51
2017-02-04T01:22:48.157Z,3.52
2017-02-04T01:23:48.171Z,3.47
2017-02-04T01:24:48.184Z,3.54
2017-02-04T01:26:02.732Z,3.54
2017-02-04T01:27:48.242Z,3.5
2017-02-04T01:28:48.249Z,3.52
2017-02-04T01:29:48.267Z,3.4
2017-02-04T01:30:48.283Z,3.5
2017-02-04T01:31:48.299Z,3.47
2017-02-04T01:32:48.318Z,3.4
2017-02-04T01:33:48.335Z,3.35
2017-02-04T01:35:02.875Z,3.43
2017-02-04T01:35:47.974Z,3.45
2017-02-04T01:36:48.379Z,3.51
2017-02-04T01:37:48.394Z,3.48
2017-02-04T01:38:48.412Z,3.58
2017-02-04T01:39:48.429Z,3.48
2017-02-04T01:40:48.446Z,3.48
2017-02-04T01:42:02.989Z,3.51
2017-02-04T01:42:48.477Z,3.51
2017-02-04T01:43:48.490Z,3.51
2017-02-04T01:44:48.505Z,3.48
2017-02-04T01:45:48.522Z,3.5
2017-02-04T01:47:03.070Z,3.48
2017-02-04T01:48:03.084Z,3.5
2017-02-04T01:48:48.576Z,3.5
2017-02-04T01:49:48.586Z,3.4
2017-02-04T01:50:48.607Z,3.48
2017-02-04T01:51:48.622Z,3.52
2017-02-04T01:52:48.833Z,3.52
2017-02-04T01:54:48.663Z,3.35
2017-02-04T01:55:48.680Z,3.39
2017-02-04T01:57:48.765Z,3.39
2017-02-04T01:58:48.732Z,3.33
2017-02-04T01:59:48.747Z,3.31
2017-02-04T02:00:48.765Z,3.28
2017-02-04T02:01:48.780Z,3.32
2017-02-04T02:02:48.797Z,3.32
2017-02-04T02:03:48.808Z,3.33
2017-02-04T02:04:48.827Z,3.28
2017-02-04T02:05:48.842Z,3.33
2017-02-04T02:06:48.857Z,3.32
2017-02-04T02:07:48.877Z,3.4
2017-02-04T02:09:48.905Z,3.4
2017-02-04T02:10:48.925Z,3.36
2017-02-04T02:11:48.939Z,3.35
2017-02-04T02:12:48.955Z,3.32
2017-02-04T02:14:48.987Z,3.26
2017-02-04T02:15:49.001Z,3.28
2017-02-04T02:16:49.015Z,3.26
2017-02-04T02:17:49.038Z,3.23
2017-02-04T02:18:49.046Z,3.35
2017-02-04T02:19:49.067Z,3.33
2017-02-04T02:20:49.080Z,3.32
2017-02-04T02:21:49.101Z,3.23
2017-02-04T02:22:49.113Z,3.26
2017-02-04T02:23:49.130Z,3.31
2017-02-04T02:24:49.143Z,3.31
2017-02-04T02:25:49.170Z,3.31
2017-02-04T02:26:49.179Z,3.39
2017-02-04T02:27:49.191Z,3.24
2017-02-04T02:29:03.737Z,3.32
2017-02-04T02:29:49.225Z,3.26
2017-02-04T02:30:49.248Z,3.33
2017-02-04T02:31:49.259Z,3.31
2017-02-04T02:32:49.274Z,3.31
2017-02-04T02:33:49.288Z,3.29
2017-02-04T02:35:03.835Z,3.29
2017-02-04T02:35:49.318Z,3.17
2017-02-04T02:36:49.335Z,3.24
2017-02-04T02:37:49.353Z,3.15
2017-02-04T02:38:49.371Z,3.15
2017-02-04T02:39:49.382Z,3.17
2017-02-04T02:40:49.403Z,3.28
2017-02-04T02:41:49.446Z,3.23
2017-02-04T02:42:49.432Z,3.2
2017-02-04T02:43:49.463Z,3.21
2017-02-04T02:45:03.994Z,3.23
2017-02-04T02:45:49.500Z,3.13
2017-02-04T02:46:49.492Z,3.23
2017-02-04T02:47:49.514Z,3.13
2017-02-04T02:48:49.526Z,3.21
2017-02-04T02:49:49.562Z,3.18
2017-02-04T02:50:49.558Z,3.14
2017-02-04T02:51:49.591Z,3.2
2017-02-04T02:52:49.206Z,3.08
2017-02-04T02:53:49.617Z,3.21
2017-02-04T02:54:49.623Z,3.1
2017-02-04T02:55:49.671Z,3.17
2017-02-04T02:56:49.651Z,3.1
2017-02-04T02:57:49.672Z,3.11
2017-02-04T02:59:49.708Z,3.08
2017-02-04T03:01:04.246Z,3.17
2017-02-04T03:01:49.731Z,3.08
2017-02-04T03:02:49.747Z,3.02
2017-02-04T03:03:49.784Z,3.14
2017-02-04T03:04:49.391Z,3.13
2017-02-04T03:05:49.811Z,3.11
2017-02-04T03:06:49.809Z,3.14
2017-02-04T03:08:04.356Z,3.15
2017-02-04T03:08:49.840Z,3.2
2017-02-04T03:09:49.853Z,3.21
2017-02-04T03:11:49.909Z,3.15
2017-02-04T03:12:49.907Z,3.11
2017-02-04T03:13:49.940Z,3.17
2017-02-04T03:14:49.940Z,3.17
2017-02-04T03:15:49.988Z,3.15
2017-02-04T03:17:04.496Z,3.18
2017-02-04T03:18:49.613Z,3.11
2017-02-04T03:19:50.012Z,3.18
2017-02-04T03:20:50.031Z,3.2
2017-02-04T03:21:49.660Z,3.14
2017-02-04T03:22:50.061Z,3.2
2017-02-04T03:23:50.081Z,3.08
2017-02-04T03:24:50.095Z,3.18
2017-02-04T03:26:04.639Z,3.23
2017-02-04T03:26:50.125Z,3.17
2017-02-04T03:27:50.141Z,3.26
2017-02-04T03:28:50.160Z,3.26
2017-02-04T03:29:50.172Z,3.21
2017-02-04T03:30:50.193Z,3.21
2017-02-04T03:32:04.739Z,3.29
2017-02-04T03:32:50.224Z,3.32
2017-02-04T03:33:50.239Z,3.18
2017-02-04T03:34:50.255Z,3.2
2017-02-04T03:35:50.269Z,3.2
2017-02-04T03:36:50.288Z,3.17
2017-02-04T03:37:50.300Z,3.26
2017-02-04T03:38:50.320Z,3.31
2017-02-04T03:39:49.946Z,3.33
2017-02-04T03:40:50.351Z,3.31
2017-02-04T03:41:50.373Z,3.36
2017-02-04T03:42:50.382Z,3.23
2017-02-04T03:43:50.401Z,3.24
2017-02-04T03:44:50.413Z,3.31
2017-02-04T03:45:50.429Z,3.28
2017-02-04T03:46:50.445Z,3.21
2017-02-04T03:47:50.460Z,3.29
2017-02-04T03:48:50.483Z,3.2
2017-02-04T03:49:50.491Z,3.17
2017-02-04T03:50:50.541Z,3.08
2017-02-04T03:51:50.525Z,3.21
2017-02-04T03:52:50.540Z,3.14
2017-02-04T03:54:05.085Z,3.17
2017-02-04T03:54:50.571Z,3.05
2017-02-04T03:55:50.203Z,3.17
2017-02-04T03:57:50.622Z,3.18
2017-02-04T04:00:04.790Z,3.06
2017-02-04T04:00:50.673Z,3.1
2017-02-04T04:01:50.685Z,3.11
2017-02-04T04:02:50.342Z,3.06
2017-02-04T04:04:50.732Z,3.13
2017-02-04T04:05:50.750Z,3.03
2017-02-04T04:06:50.759Z,3
2017-02-04T04:08:05.313Z,3.08
2017-02-04T04:08:50.792Z,3.03
2017-02-04T04:09:50.812Z,3
2017-02-04T04:10:50.826Z,3.06
2017-02-04T04:11:50.068Z,3
2017-02-04T04:12:50.474Z,3.08
2017-02-04T04:14:05.398Z,3.15
2017-02-04T04:14:50.887Z,3.17
2017-02-04T04:15:50.900Z,3.11
2017-02-04T04:16:50.534Z,3.14
2017-02-04T04:17:50.943Z,3.11
2017-02-04T04:18:50.949Z,3.17
2017-02-04T04:20:05.109Z,3.08
2017-02-04T04:20:50.983Z,3.17
2017-02-04T04:21:51.004Z,3.13
2017-02-04T04:22:51.013Z,3.1
2017-02-04T04:23:51.028Z,3.11
2017-02-04T04:24:51.049Z,3.13
2017-02-04T04:25:51.079Z,3.11
2017-02-04T04:26:51.080Z,3.15
2017-02-04T04:27:51.114Z,3.15
2017-02-04T04:28:51.110Z,3.17
2017-02-04T04:29:51.147Z,3.17
2017-02-04T04:30:51.141Z,3.08
2017-02-04T04:31:51.169Z,3.15
2017-02-04T04:32:51.170Z,3.17
2017-02-04T04:33:51.210Z,3.13
2017-02-04T04:34:50.819Z,3.11
2017-02-04T04:36:05.745Z,3.14
2017-02-04T04:36:51.237Z,3.05
2017-02-04T04:37:51.257Z,3.18
2017-02-04T04:38:51.264Z,3.2
2017-02-04T04:39:51.283Z,3.21
2017-02-04T04:40:51.299Z,3.18
2017-02-04T04:41:51.309Z,3.18
2017-02-04T04:43:05.860Z,3.18
2017-02-04T04:43:50.960Z,3.14
2017-02-04T04:45:05.504Z,3.13
2017-02-04T04:45:51.378Z,3.21
2017-02-04T04:46:51.391Z,3.08
2017-02-04T04:50:51.457Z,3.21
2017-02-04T04:52:06.004Z,3.17
2017-02-04T04:52:51.492Z,3.14
2017-02-04T04:53:51.508Z,3.14
2017-02-04T04:54:51.520Z,3.2
2017-02-04T04:55:51.538Z,3.14
2017-02-04T04:56:51.558Z,3.14
2017-02-04T04:57:51.564Z,3
2017-02-04T04:58:51.587Z,3.02
2017-02-04T04:59:51.596Z,3.02
2017-02-04T05:00:51.649Z,3.18
2017-02-04T05:02:06.205Z,3.11
2017-02-04T05:02:51.646Z,3.18
2017-02-04T05:04:51.681Z,3.17
2017-02-04T05:07:06.239Z,3.11
2017-02-04T05:07:51.730Z,3.18
2017-02-04T05:08:51.741Z,3.13
2017-02-04T05:09:51.373Z,3.02
2017-02-04T05:10:51.775Z,3.2
2017-02-04T05:11:51.790Z,3.1
2017-02-04T05:12:51.803Z,3.2
2017-02-04T05:13:51.825Z,3.13
2017-02-04T05:14:51.842Z,3.11
2017-02-04T05:15:51.855Z,3.14
2017-02-04T05:16:51.868Z,3.18
2017-02-04T05:17:51.909Z,3.11
2017-02-04T05:18:51.520Z,3.18
2017-02-04T05:19:51.914Z,3.14
2017-02-04T05:20:51.160Z,3.13
2017-02-04T05:21:51.565Z,3.17
2017-02-04T05:23:51.975Z,3
2017-02-04T05:24:51.999Z,3.17
2017-02-04T05:25:52.011Z,3.03
2017-02-04T05:26:51.641Z,3.08
2017-02-04T05:27:51.654Z,3.08
2017-02-04T05:29:06.590Z,3.05
2017-02-04T05:29:51.685Z,3.14
2017-02-04T05:30:51.702Z,3.21
2017-02-04T05:31:52.102Z,3.14
2017-02-04T05:32:51.734Z,3.11
2017-02-04T05:33:52.139Z,3.08
2017-02-04T05:34:52.155Z,3.21
2017-02-04T05:35:52.170Z,3.13
2017-02-04T05:36:52.188Z,3.13
2017-02-04T05:37:52.199Z,3.05
2017-02-04T05:39:06.748Z,3.05
2017-02-04T05:39:52.232Z,3.13
2017-02-04T05:40:52.250Z,3.08
2017-02-04T05:41:52.259Z,3.17
2017-02-04T05:42:52.279Z,3.08
2017-02-04T05:43:52.298Z,3.2
2017-02-04T05:45:06.842Z,3.1
2017-02-04T05:45:52.325Z,3.14
2017-02-04T05:47:06.872Z,3.14
2017-02-04T05:47:52.361Z,3.21
2017-02-04T05:48:52.376Z,3.23
2017-02-04T05:49:52.389Z,3.18
2017-02-04T05:50:52.407Z,3.15
2017-02-04T05:51:52.421Z,3.08
2017-02-04T05:52:52.441Z,3.03
2017-02-04T05:53:52.458Z,3.02
2017-02-04T05:55:07.002Z,3.13
2017-02-04T05:55:52.486Z,3.11
2017-02-04T05:56:52.501Z,3.18
2017-02-04T05:57:52.519Z,3.08
2017-02-04T05:58:52.535Z,3.17
2017-02-04T06:00:07.081Z,3.03
2017-02-04T06:01:07.095Z,3.18
2017-02-04T06:02:07.413Z,3.06
2017-02-04T06:02:52.598Z,3.06
2017-02-04T06:03:52.226Z,3
2017-02-04T06:04:52.630Z,3.03
2017-02-04T06:05:52.645Z,3.15
2017-02-04T06:06:52.663Z,3.1
2017-02-04T06:07:52.728Z,3.14
2017-02-04T06:08:52.307Z,3.02
2017-02-04T06:09:52.704Z,3.13
2017-02-04T06:11:07.253Z,3.13
2017-02-04T06:11:52.738Z,3.05
2017-02-04T06:12:52.757Z,3.03
2017-02-04T06:13:52.771Z,3.11
2017-02-04T06:14:52.790Z,3.08
2017-02-04T06:15:52.805Z,3.05
2017-02-04T06:16:52.433Z,3.06
2017-02-04T06:18:07.365Z,3.13
2017-02-04T06:19:07.379Z,3.14
2017-02-04T06:19:52.866Z,3.08
2017-02-04T06:20:52.885Z,3
2017-02-04T06:21:52.900Z,3.02
2017-02-04T06:22:52.914Z,3
2017-02-04T06:23:52.937Z,3.08
2017-02-04T06:24:52.943Z,3.02
2017-02-04T06:25:52.963Z,3.03
2017-02-04T06:27:07.508Z,3.05
2017-02-04T06:27:52.612Z,2.99
2017-02-04T06:28:53.010Z,3.03
2017-02-04T06:29:53.026Z,3.03
2017-02-04T06:30:53.045Z,3.02
2017-02-04T06:31:53.060Z,3.03
2017-02-04T06:32:53.076Z,2.9
2017-02-04T06:33:53.086Z,2.96
2017-02-04T06:34:53.106Z,3.08
2017-02-04T06:35:53.123Z,3.08
2017-02-04T06:36:53.142Z,3.06
2017-02-04T06:37:53.155Z,2.96
2017-02-04T06:38:53.203Z,3.05
2017-02-04T06:39:52.798Z,3.08
2017-02-04T06:40:53.206Z,3
2017-02-04T06:42:07.749Z,3.11
2017-02-04T06:42:53.231Z,3.14
2017-02-04T06:43:53.245Z,3.13
2017-02-04T06:44:52.877Z,3.06
2017-02-04T06:45:52.891Z,2.97
2017-02-04T06:46:53.299Z,2.97
2017-02-04T06:47:52.922Z,2.97
2017-02-04T06:48:53.325Z,2.96
2017-02-04T06:49:53.344Z,3.05
2017-02-04T06:50:53.361Z,3.06
2017-02-04T06:51:53.377Z,3.06
2017-02-04T06:52:53.397Z,3.02
2017-02-04T06:53:53.407Z,3.02
2017-02-04T06:55:53.441Z,2.97
2017-02-04T06:56:53.461Z,3
2017-02-04T06:57:53.082Z,3.05
2017-02-04T06:58:53.485Z,3.17
2017-02-04T06:59:53.502Z,3.06
2017-02-04T07:00:53.514Z,3.13
2017-02-04T07:01:53.532Z,3.13
2017-02-04T07:02:53.549Z,3.05
2017-02-04T07:03:53.563Z,3.13
2017-02-04T07:04:53.581Z,3.13
2017-02-04T07:05:53.596Z,3.03
2017-02-04T07:06:53.612Z,3.02
2017-02-04T07:07:53.624Z,3.02
2017-02-04T07:08:53.641Z,3.06
2017-02-04T07:09:53.662Z,3.02
2017-02-04T07:10:53.673Z,3.11
2017-02-04T07:11:53.688Z,3.15
2017-02-04T07:12:53.704Z,3.11
2017-02-04T07:14:08.451Z,3.15
2017-02-04T07:14:53.737Z,3.08
2017-02-04T07:15:53.752Z,3.03
2017-02-04T07:16:53.770Z,3.06
2017-02-04T07:17:53.783Z,3.05
2017-02-04T07:18:53.803Z,3.18
2017-02-04T07:19:53.819Z,3.11
2017-02-04T07:20:53.839Z,3.2
2017-02-04T07:21:53.850Z,3.03
2017-02-04T07:22:53.866Z,3.05
2017-02-04T07:23:53.880Z,3.06
2017-02-04T07:24:53.892Z,3.06
2017-02-04T07:25:53.914Z,3.02
2017-02-04T07:26:53.924Z,3.06
2017-02-04T07:27:53.944Z,3.02
2017-02-04T07:28:53.958Z,3.06
2017-02-04T07:30:08.504Z,3.08
2017-02-04T07:30:53.995Z,3.06
2017-02-04T07:31:54.002Z,3.02
2017-02-04T07:32:54.021Z,3.11
2017-02-04T07:33:54.039Z,3.03
2017-02-04T07:34:54.052Z,3.1
2017-02-04T07:35:54.070Z,3.14
2017-02-04T07:36:54.083Z,3.13
2017-02-04T07:37:54.103Z,3.2
2017-02-04T07:38:54.116Z,3.08
2017-02-04T07:39:54.132Z,3.08
2017-02-04T07:40:54.145Z,3.11
2017-02-04T07:41:54.165Z,3.23
2017-02-04T07:42:54.180Z,3.14
2017-02-04T07:43:54.198Z,3.14
2017-02-04T07:44:54.214Z,3.08
2017-02-04T07:46:54.279Z,3.23
2017-02-04T07:47:54.258Z,3.2
2017-02-04T07:48:54.274Z,3.18
2017-02-04T07:49:53.906Z,3.21
2017-02-04T07:50:54.306Z,3.15
2017-02-04T07:52:08.853Z,3.2
2017-02-04T07:52:54.337Z,3.23
2017-02-04T07:53:54.357Z,3.28
2017-02-04T07:54:54.366Z,3.23
2017-02-04T07:55:54.386Z,3.2
2017-02-04T07:57:54.415Z,3.29
2017-02-04T07:59:54.449Z,3.26
2017-02-04T08:00:54.468Z,3.31
2017-02-04T08:02:09.009Z,3.36
2017-02-04T08:02:54.494Z,3.4
2017-02-04T08:03:54.515Z,3.33
2017-02-04T08:05:54.544Z,3.32
2017-02-04T08:06:54.560Z,3.35
2017-02-04T08:07:54.578Z,3.45
2017-02-04T08:08:54.594Z,3.48
2017-02-04T08:09:54.610Z,3.4
2017-02-04T08:10:54.627Z,3.35
2017-02-04T08:11:54.636Z,3.33
2017-02-04T08:12:54.654Z,3.33
2017-02-04T08:14:54.688Z,3.26
2017-02-04T08:15:54.746Z,3.26
2017-02-04T08:17:09.249Z,3.2
2017-02-04T08:17:54.740Z,3.28
2017-02-04T08:18:54.754Z,3.33
2017-02-04T08:19:54.768Z,3.33
2017-02-04T08:20:54.785Z,3.32
2017-02-04T08:22:09.332Z,3.39
2017-02-04T08:23:09.347Z,3.4
2017-02-04T08:23:54.839Z,3.48
2017-02-04T08:24:54.845Z,3.51
2017-02-04T08:25:54.872Z,3.51
2017-02-04T08:26:54.881Z,3.5
2017-02-04T08:27:54.896Z,3.52
2017-02-04T08:29:54.930Z,3.62
2017-02-04T08:30:54.952Z,3.55
2017-02-04T08:31:54.967Z,3.6
2017-02-04T08:32:54.973Z,3.61
2017-02-04T08:33:54.994Z,3.57
2017-02-04T08:34:55.008Z,3.57
2017-02-04T08:35:55.024Z,3.66
2017-02-04T08:36:55.048Z,3.75
2017-02-04T08:37:55.064Z,3.72
2017-02-04T08:38:55.072Z,3.58
2017-02-04T08:39:55.092Z,3.73
2017-02-04T08:40:55.117Z,3.7
2017-02-04T08:42:55.140Z,3.86
2017-02-04T08:43:55.502Z,3.78
2017-02-04T08:44:55.172Z,3.76
2017-02-04T08:45:55.191Z,3.9
2017-02-04T08:46:55.455Z,3.86
2017-02-04T08:47:55.219Z,3.78
2017-02-04T08:49:09.766Z,3.83
2017-02-04T08:49:55.255Z,3.83
2017-02-04T08:50:55.272Z,3.8
2017-02-04T08:51:54.899Z,3.84
2017-02-04T08:52:55.301Z,3.75
2017-02-04T08:53:55.317Z,3.79
2017-02-04T08:55:09.865Z,3.73
2017-02-04T08:56:09.880Z,3.8
2017-02-04T08:57:09.895Z,3.75
2017-02-04T08:57:55.383Z,3.83
2017-02-04T08:59:09.928Z,3.69
2017-02-04T08:59:55.417Z,3.73
2017-02-04T09:00:55.432Z,3.69
2017-02-04T09:01:55.450Z,3.76
2017-02-04T09:02:55.467Z,3.72
2017-02-04T09:03:55.478Z,3.72
2017-02-04T09:05:55.514Z,3.75
2017-02-04T09:06:55.534Z,3.84
2017-02-04T09:07:55.544Z,3.84
2017-02-04T09:08:55.566Z,3.83
2017-02-04T09:09:55.579Z,3.84
2017-02-04T09:11:10.127Z,3.86
2017-02-04T09:11:55.611Z,3.83
2017-02-04T09:12:55.630Z,3.79
2017-02-04T09:13:55.645Z,3.9
2017-02-04T09:14:55.661Z,4.09
2017-02-04T09:15:55.678Z,4.08
2017-02-04T09:16:55.695Z,4.23
2017-02-04T09:17:55.711Z,4.2
2017-02-04T09:18:55.729Z,4.34
2017-02-04T09:21:10.290Z,4.34
2017-02-04T09:21:55.780Z,4.29
2017-02-04T09:22:55.797Z,4.27
2017-02-04T09:23:55.812Z,4.23
2017-02-04T09:24:55.825Z,4.3
2017-02-04T09:25:55.841Z,4.29
2017-02-04T09:26:55.858Z,4.22
2017-02-04T09:27:55.881Z,4.23
2017-02-04T09:28:55.895Z,4.26
2017-02-04T09:29:55.910Z,4.2
2017-02-04T09:30:55.929Z,4.24
2017-02-04T09:31:55.944Z,4.4
2017-02-04T09:32:55.963Z,4.34
2017-02-04T09:33:55.981Z,4.48
2017-02-04T09:34:56.008Z,4.47
2017-02-04T09:35:56.013Z,4.5
2017-02-04T09:37:56.045Z,4.58
2017-02-04T09:38:56.065Z,4.59
2017-02-04T09:39:56.079Z,4.51
2017-02-04T09:41:10.628Z,4.5
2017-02-04T09:41:56.112Z,4.62
2017-02-04T09:42:55.741Z,4.54
2017-02-04T09:44:10.677Z,4.55
2017-02-04T09:44:56.167Z,4.52
2017-02-04T09:45:56.183Z,4.6
2017-02-04T09:46:56.201Z,4.67
2017-02-04T09:47:56.222Z,4.67
2017-02-04T09:48:56.234Z,4.63
2017-02-04T09:49:56.250Z,4.78
2017-02-04T09:50:55.881Z,4.73
2017-02-04T09:52:10.814Z,4.66
2017-02-04T09:52:56.303Z,4.67
2017-02-04T09:54:10.854Z,4.62
2017-02-04T09:54:56.330Z,4.52
2017-02-04T09:55:56.359Z,4.54
2017-02-04T09:56:56.372Z,4.54
2017-02-04T09:57:56.386Z,4.67
2017-02-04T09:58:56.406Z,4.69
2017-02-04T09:59:56.422Z,4.67
2017-02-04T10:00:56.438Z,4.77
2017-02-04T10:01:56.456Z,4.75
2017-02-04T10:02:56.479Z,4.75
2017-02-04T10:03:55.719Z,4.72
2017-02-04T10:04:56.509Z,4.85
2017-02-04T10:05:56.524Z,4.97
2017-02-04T10:06:55.767Z,5
2017-02-04T10:07:56.577Z,5.06
2017-02-04T10:08:56.576Z,4.99
2017-02-04T10:09:56.595Z,4.99
2017-02-04T10:10:56.612Z,4.85
2017-02-04T10:11:56.632Z,4.91
2017-02-04T10:12:56.645Z,4.73
2017-02-04T10:13:56.662Z,4.89
2017-02-04T10:14:56.683Z,4.73
2017-02-04T10:15:55.929Z,4.67
2017-02-04T10:17:11.242Z,4.75
2017-02-04T10:17:56.734Z,4.69
2017-02-04T10:18:56.747Z,4.67
2017-02-04T10:19:56.771Z,4.66
2017-02-04T10:20:56.396Z,4.65
2017-02-04T10:21:56.799Z,4.67
2017-02-04T10:22:56.430Z,4.62
2017-02-04T10:24:11.368Z,4.67
2017-02-04T10:24:56.465Z,4.7
2017-02-04T10:25:56.873Z,4.8
2017-02-04T10:26:56.890Z,4.88
2017-02-04T10:27:56.903Z,4.92
2017-02-04T10:29:11.453Z,4.91
2017-02-04T10:30:11.469Z,5.03
2017-02-04T10:30:56.957Z,5.1
2017-02-04T10:31:56.977Z,5.02
2017-02-04T10:32:56.994Z,5.04
2017-02-04T10:34:11.153Z,5.1
2017-02-04T10:34:57.023Z,5.15
2017-02-04T10:35:56.659Z,5.22
2017-02-04T10:36:57.061Z,5.21
2017-02-04T10:37:57.078Z,5.31
2017-02-04T10:38:57.097Z,5.38
2017-02-04T10:40:11.261Z,5.17
2017-02-04T10:40:56.750Z,5.18
2017-02-04T10:41:57.148Z,5.12
2017-02-04T10:42:57.170Z,5.07
2017-02-04T10:43:56.798Z,5.06
2017-02-04T10:44:57.201Z,4.92
2017-02-04T10:45:57.223Z,4.91
2017-02-04T10:46:57.239Z,4.96
2017-02-04T10:47:57.253Z,5.06
2017-02-04T10:49:11.829Z,5.15
2017-02-04T10:49:57.288Z,5.3
2017-02-04T10:50:57.314Z,5.3
2017-02-04T10:51:57.325Z,5.3
2017-02-04T10:52:57.345Z,5.35
2017-02-04T10:53:57.359Z,5.38
2017-02-04T10:54:57.378Z,5.24
2017-02-04T10:56:11.537Z,5.24
2017-02-04T10:56:57.415Z,5.25
2017-02-04T10:57:57.431Z,5.33
2017-02-04T10:58:57.449Z,5.46
2017-02-04T10:59:57.466Z,5.49
2017-02-04T11:00:57.479Z,5.56
2017-02-04T11:01:57.508Z,5.53
2017-02-04T11:02:57.575Z,5.74
2017-02-04T11:03:57.541Z,5.64
2017-02-04T11:04:57.857Z,5.76
2017-02-04T11:05:57.573Z,5.79
2017-02-04T11:06:57.596Z,5.81
2017-02-04T11:07:57.607Z,5.68
2017-02-04T11:08:57.637Z,5.51
2017-02-04T11:09:57.991Z,5.49
2017-02-04T11:10:57.664Z,5.45
2017-02-04T11:12:57.704Z,5.42
2017-02-04T11:13:57.721Z,5.4
2017-02-04T11:14:57.737Z,5.31
2017-02-04T11:15:57.752Z,5.33
2017-02-04T11:16:57.771Z,5.28
2017-02-04T11:17:57.786Z,5.4
2017-02-04T11:18:57.808Z,5.31
2017-02-04T11:19:57.819Z,5.27
2017-02-04T11:20:57.844Z,5.03
2017-02-04T11:21:57.863Z,5.1
2017-02-04T11:22:57.882Z,5.13
2017-02-04T11:23:57.895Z,5.25
2017-02-04T11:24:57.913Z,5.3
2017-02-04T11:25:57.930Z,5.39
2017-02-04T11:27:57.967Z,5.46
2017-02-04T11:28:57.987Z,5.42
2017-02-04T11:29:58.006Z,5.51
2017-02-04T11:30:58.022Z,5.4
2017-02-04T11:31:58.038Z,5.4
2017-02-04T11:33:12.588Z,5.46
2017-02-04T11:33:58.074Z,5.56
2017-02-04T11:34:58.094Z,5.45
2017-02-04T11:35:58.106Z,5.63
2017-02-04T11:36:58.127Z,5.6
2017-02-04T11:37:58.144Z,5.78
2017-02-04T11:39:58.178Z,5.65
2017-02-04T11:40:58.199Z,5.64
2017-02-04T11:41:58.217Z,5.64
2017-02-04T11:42:58.240Z,5.58
2017-02-04T11:43:58.251Z,5.67
2017-02-04T11:44:58.269Z,5.75
2017-02-04T11:45:58.291Z,5.63
2017-02-04T11:46:58.307Z,5.76
2017-02-04T11:47:58.319Z,5.58
2017-02-04T11:49:58.359Z,5.49
2017-02-04T11:50:58.376Z,5.43
2017-02-04T11:51:58.396Z,5.42
2017-02-04T11:52:58.416Z,5.46
2017-02-04T11:53:58.431Z,5.42
2017-02-04T11:55:58.466Z,5.45
2017-02-04T11:56:58.484Z,5.53
2017-02-04T11:57:58.506Z,5.51
2017-02-04T11:59:13.050Z,5.68
2017-02-04T11:59:58.542Z,5.76
2017-02-04T12:01:58.575Z,5.64
2017-02-04T12:02:58.592Z,5.49
2017-02-04T12:03:58.614Z,5.53
2017-02-04T12:04:58.628Z,5.46
2017-02-04T12:06:13.176Z,5.51
2017-02-04T12:07:13.195Z,5.48
2017-02-04T12:08:13.211Z,5.39
2017-02-04T12:08:58.701Z,5.4
2017-02-04T12:09:58.717Z,5.51
2017-02-04T12:11:58.763Z,5.49
2017-02-04T12:13:58.794Z,5.64
2017-02-04T12:15:58.832Z,5.72
2017-02-04T12:16:58.845Z,5.76
2017-02-04T12:17:58.865Z,5.81
2017-02-04T12:18:58.880Z,5.96
2017-02-04T12:19:58.513Z,6.15
2017-02-04T12:20:58.918Z,6.12
2017-02-04T12:21:58.938Z,6.08
2017-02-04T12:22:58.956Z,6.12
2017-02-04T12:23:58.584Z,6.11
2017-02-04T12:24:58.990Z,6.01
2017-02-04T12:25:59.010Z,5.9
2017-02-04T12:26:59.025Z,5.81
2017-02-04T12:27:59.047Z,5.81
2017-02-04T12:28:59.063Z,5.79
2017-02-04T12:29:59.087Z,5.72
2017-02-04T12:31:59.120Z,5.81
2017-02-04T12:32:59.136Z,5.81
2017-02-04T12:33:59.155Z,5.64
2017-02-04T12:34:59.171Z,5.74
2017-02-04T12:35:59.191Z,5.85
2017-02-04T12:37:13.740Z,5.81
2017-02-04T12:37:59.225Z,5.71
2017-02-04T12:38:59.243Z,5.75
2017-02-04T12:39:58.877Z,5.74
2017-02-04T12:40:59.281Z,5.93
2017-02-04T12:41:59.299Z,5.97
2017-02-04T12:42:59.321Z,6.01
2017-02-04T12:44:59.364Z,5.96
2017-02-04T12:45:59.371Z,5.93
2017-02-04T12:47:13.921Z,5.78
2017-02-04T12:47:59.413Z,5.81
2017-02-04T12:49:59.449Z,5.74
2017-02-04T12:50:59.464Z,5.64
2017-02-04T12:51:59.483Z,5.74
2017-02-04T12:52:59.501Z,5.6
2017-02-04T12:53:59.517Z,5.67
2017-02-04T12:54:59.538Z,5.74
2017-02-04T12:55:59.555Z,5.75
2017-02-04T12:56:59.575Z,5.76
2017-02-04T12:57:59.592Z,5.72
2017-02-04T12:59:59.626Z,5.67
2017-02-04T13:00:59.649Z,5.78
2017-02-04T13:02:14.196Z,5.82
2017-02-04T13:02:59.685Z,5.82
2017-02-04T13:03:59.700Z,5.86
2017-02-04T13:04:59.741Z,6.04
2017-02-04T13:05:59.740Z,5.89
2017-02-04T13:08:14.303Z,5.76
2017-02-04T13:08:59.791Z,5.81
2017-02-04T13:09:59.809Z,5.65
2017-02-04T13:10:59.824Z,5.61
2017-02-04T13:11:59.847Z,5.6
2017-02-04T13:12:59.865Z,5.6
2017-02-04T13:13:59.882Z,5.63
2017-02-04T13:14:59.898Z,5.65
2017-02-04T13:16:59.933Z,5.72
2017-02-04T13:17:59.953Z,5.76
2017-02-04T13:19:59.991Z,5.82
2017-02-04T13:21:00.012Z,5.78
2017-02-04T13:22:00.027Z,5.61
2017-02-04T13:23:00.056Z,5.63
2017-02-04T13:24:00.060Z,5.64
2017-02-04T13:25:00.080Z,5.63
2017-02-04T13:26:14.629Z,5.68
2017-02-04T13:27:00.119Z,5.76
2017-02-04T13:28:00.135Z,5.71
2017-02-04T13:29:00.154Z,5.67
2017-02-04T13:30:00.171Z,5.64
2017-02-04T13:31:00.195Z,5.65
2017-02-04T13:32:00.208Z,5.74
2017-02-04T13:33:00.227Z,5.64
2017-02-04T13:34:14.772Z,5.53
2017-02-04T13:34:59.879Z,5.46
2017-02-04T13:36:59.912Z,5.51
2017-02-04T13:38:00.320Z,5.49
2017-02-04T13:39:00.333Z,5.58
2017-02-04T13:40:00.354Z,5.49
2017-02-04T13:41:00.374Z,5.53
2017-02-04T13:43:14.935Z,5.63
2017-02-04T13:44:00.426Z,5.67
2017-02-04T13:45:00.449Z,5.71
2017-02-04T13:46:00.070Z,5.6
2017-02-04T13:47:00.092Z,5.64
2017-02-04T13:48:00.106Z,5.68
2017-02-04T13:49:00.515Z,5.71
2017-02-04T13:51:00.557Z,5.78
2017-02-04T13:52:00.573Z,5.68
2017-02-04T13:53:00.591Z,5.78
2017-02-04T13:54:00.219Z,5.68
2017-02-04T13:55:00.239Z,5.81
2017-02-04T13:56:15.176Z,5.81
2017-02-04T13:57:00.661Z,5.75
2017-02-04T13:58:00.678Z,5.67
2017-02-04T13:59:00.694Z,5.71
2017-02-04T14:00:00.716Z,5.63
2017-02-04T14:02:00.753Z,5.72
2017-02-04T14:03:00.384Z,5.61
2017-02-04T14:04:00.785Z,5.49
2017-02-04T14:05:00.804Z,5.53
2017-02-04T14:06:15.350Z,5.54
2017-02-04T14:07:00.840Z,5.49
2017-02-04T14:08:00.860Z,5.46
2017-02-04T14:09:00.877Z,5.53
2017-02-04T14:10:00.891Z,5.45
2017-02-04T14:11:00.522Z,5.49
2017-02-04T14:12:00.927Z,5.39
2017-02-04T14:13:00.948Z,5.38
2017-02-04T14:14:00.968Z,5.42
2017-02-04T14:15:00.981Z,5.38
2017-02-04T14:16:00.999Z,5.4
2017-02-04T14:17:01.014Z,5.28
2017-02-04T14:18:01.036Z,5.15